Time;durP1;ratioP1;P1;durP2;ratioP2;P2;SDS_P1;SDS_P2;PMS_P1;PMS_P2;Temp;Humidity;BMP_temperature;BMP_pressure;BME280_temperature;BME280_humidity;BME280_pressure;Samples;Min_cycle;Max_cycle;Signal;HPM_P1;HPM_P2
2021/05/22 00:01:35;;;;;;;2.10;1.13;;;23.40;32.40;;;;;;5012436;28;20037;-48
2021/05/22 00:04:02;;;;;;;1.60;1.02;;;23.40;32.50;;;;;;5012456;28;20453;-53
2021/05/22 00:06:28;;;;;;;1.77;0.95;;;23.40;32.50;;;;;;5013201;28;20050;-52
2021/05/22 00:08:54;;;;;;;2.42;1.27;;;23.40;32.50;;;;;;5014077;28;20113;-54
2021/05/22 00:11:20;;;;;;;1.73;1.00;;;23.30;32.50;;;;;;5013496;28;20037;-50
2021/05/22 00:13:45;;;;;;;1.92;1.02;;;23.30;32.60;;;;;;5013089;28;20119;-53
2021/05/22 00:16:11;;;;;;;1.65;1.15;;;23.30;32.60;;;;;;5013393;28;20038;-55
2021/05/22 00:18:37;;;;;;;1.40;0.82;;;23.30;32.60;;;;;;5013603;28;20040;-55
2021/05/22 00:21:03;;;;;;;1.50;0.80;;;23.30;32.70;;;;;;5012788;28;20445;-51
2021/05/22 00:23:29;;;;;;;2.03;0.80;;;23.30;32.70;;;;;;5013551;28;20121;-53
2021/05/22 00:25:55;;;;;;;2.03;1.13;;;23.30;32.70;;;;;;5011834;28;20432;-50
2021/05/22 00:28:21;;;;;;;2.28;1.10;;;23.30;32.70;;;;;;5013798;28;20425;-49
2021/05/22 00:30:47;;;;;;;1.83;1.10;;;23.30;32.70;;;;;;5011957;28;20044;-54
2021/05/22 00:33:12;;;;;;;1.98;0.80;;;23.30;32.70;;;;;;5013115;28;20030;-56
2021/05/22 00:35:38;;;;;;;1.73;0.75;;;23.20;32.70;;;;;;5013058;28;20026;-50
2021/05/22 00:38:04;;;;;;;1.30;0.70;;;23.20;32.70;;;;;;5012284;28;20072;-53
2021/05/22 00:40:29;;;;;;;1.98;0.90;;;23.20;32.70;;;;;;5015716;28;20104;-51
2021/05/22 00:42:56;;;;;;;1.63;0.80;;;23.20;32.70;;;;;;5016745;28;20100;-51
2021/05/22 00:45:23;;;;;;;2.10;1.13;;;23.20;32.70;;;;;;5016947;28;20076;-50
2021/05/22 00:47:51;;;;;;;1.77;0.80;;;23.20;32.70;;;;;;5016851;28;20018;-56
2021/05/22 00:50:27;;;;;;;1.73;0.70;;;23.20;32.60;;;;;;5016027;28;20076;-50
2021/05/22 00:52:54;;;;;;;1.55;0.70;;;23.20;32.60;;;;;;5016286;28;20034;-56
2021/05/22 00:55:21;;;;;;;2.70;1.00;;;23.20;32.70;;;;;;5016278;28;20087;-54
2021/05/22 00:57:47;;;;;;;1.83;0.80;;;23.20;32.60;;;;;;5016914;28;20125;-53
2021/05/22 01:00:34;;;;;;;1.48;0.80;;;23.20;32.60;;;;;;5016351;28;20026;-55
2021/05/22 01:03:00;;;;;;;1.38;0.70;;;23.20;32.60;;;;;;4997599;28;20125;-51
2021/05/22 01:05:27;;;;;;;1.10;0.60;;;23.10;32.60;;;;;;5013106;28;20129;-51
2021/05/22 01:07:54;;;;;;;2.50;0.95;;;23.10;32.60;;;;;;5016251;28;20025;-54
2021/05/22 01:10:21;;;;;;;1.95;1.00;;;23.10;32.60;;;;;;5015777;28;20037;-53
2021/05/22 01:12:51;;;;;;;0.95;0.57;;;23.10;32.60;;;;;;5016331;28;20030;-51
2021/05/22 01:15:23;;;;;;;1.35;0.68;;;23.10;32.50;;;;;;5015976;28;20022;-52
2021/05/22 01:17:50;;;;;;;1.75;0.77;;;23.10;32.90;;;;;;5012368;28;20402;-56
2021/05/22 01:20:42;;;;;;;1.00;0.50;;;23.10;32.50;;;;;;5014954;28;20107;-53
2021/05/22 01:23:21;;;;;;;0.85;0.50;;;23.10;32.50;;;;;;5016291;28;20060;-50
2021/05/22 01:25:49;;;;;;;1.70;0.73;;;23.00;32.50;;;;;;5015964;28;20056;-46
2021/05/22 01:28:15;;;;;;;1.45;0.63;;;23.00;32.50;;;;;;5016535;28;20068;-48
2021/05/22 01:30:43;;;;;;;2.00;0.88;;;23.10;32.50;;;;;;5016137;28;20091;-46
2021/05/22 01:33:09;;;;;;;1.08;0.63;;;23.00;32.50;;;;;;5016289;28;20089;-49
2021/05/22 01:35:37;;;;;;;1.20;0.82;;;23.00;32.50;;;;;;5014826;28;20079;-47
2021/05/22 01:38:03;;;;;;;0.73;0.60;;;23.00;32.50;;;;;;5015299;28;20033;-49
2021/05/22 01:40:29;;;;;;;2.00;0.75;;;23.00;32.50;;;;;;5014190;28;20041;-54
2021/05/22 01:42:55;;;;;;;1.30;0.60;;;23.00;32.50;;;;;;5015641;28;20448;-56
2021/05/22 01:45:26;;;;;;;1.50;0.65;;;23.00;32.50;;;;;;5015420;28;20041;-51
2021/05/22 01:47:54;;;;;;;0.90;0.50;;;23.00;32.50;;;;;;5016113;28;20040;-50
2021/05/22 01:50:22;;;;;;;1.10;0.60;;;22.90;32.50;;;;;;5013221;28;20026;-53
2021/05/22 01:52:52;;;;;;;0.95;0.52;;;22.90;32.50;;;;;;5014954;28;20061;-51
2021/05/22 01:55:19;;;;;;;1.33;0.60;;;22.90;32.50;;;;;;5011139;28;20030;-54
2021/05/22 01:57:45;;;;;;;0.98;0.63;;;22.90;32.50;;;;;;5015567;28;20318;-51
2021/05/22 02:00:12;;;;;;;1.63;0.77;;;22.90;32.50;;;;;;5015183;28;20124;-50
2021/05/22 02:03:19;;;;;;;2.00;0.60;;;22.90;32.50;;;;;;5015481;28;20061;-48
2021/05/22 02:05:47;;;;;;;1.10;0.50;;;22.90;32.50;;;;;;4988364;28;20161;-50
2021/05/22 02:08:19;;;;;;;1.75;0.65;;;22.90;32.50;;;;;;5013941;28;20069;-54
2021/05/22 02:10:47;;;;;;;1.80;0.52;;;22.90;32.50;;;;;;5014678;28;20030;-51
2021/05/22 02:13:13;;;;;;;2.47;0.95;;;22.90;32.50;;;;;;5014155;28;20038;-52
2021/05/22 02:15:41;;;;;;;2.00;0.75;;;22.80;32.50;;;;;;5015135;28;20029;-54
2021/05/22 02:18:09;;;;;;;1.40;0.73;;;22.80;32.50;;;;;;5013785;28;20025;-52
2021/05/22 02:20:36;;;;;;;1.40;0.50;;;22.80;32.60;;;;;;5015324;28;20033;-51
2021/05/22 02:23:05;;;;;;;1.40;0.60;;;22.80;32.60;;;;;;5014955;28;20104;-55
2021/05/22 02:25:31;;;;;;;1.30;0.50;;;22.80;33.30;;;;;;5014578;28;20100;-50
2021/05/22 02:27:59;;;;;;;0.82;0.40;;;22.80;33.30;;;;;;5015130;28;20029;-50
2021/05/22 02:30:25;;;;;;;0.52;0.38;;;22.80;32.60;;;;;;5014867;28;20034;-56
2021/05/22 02:32:51;;;;;;;1.20;0.70;;;22.80;32.60;;;;;;5015087;28;20094;-51
2021/05/22 02:35:20;;;;;;;1.65;0.68;;;22.80;32.60;;;;;;5013155;28;20038;-56
2021/05/22 02:37:51;;;;;;;1.02;0.50;;;22.80;32.70;;;;;;5014192;28;20038;-53
2021/05/22 02:40:23;;;;;;;0.82;0.40;;;22.80;32.70;;;;;;5014808;28;20051;-53
2021/05/22 02:42:59;;;;;;;1.33;0.60;;;22.80;32.70;;;;;;5014368;28;20041;-53
2021/05/22 02:45:27;;;;;;;0.68;0.50;;;22.70;32.60;;;;;;5014368;28;20045;-54
2021/05/22 02:47:56;;;;;;;1.45;0.68;;;22.80;32.70;;;;;;5013778;28;20080;-52
2021/05/22 02:50:24;;;;;;;1.13;0.80;;;22.70;32.70;;;;;;5014069;28;20343;-48
2021/05/22 02:52:53;;;;;;;1.17;0.57;;;22.70;32.70;;;;;;5014493;28;20038;-53
2021/05/22 02:55:18;;;;;;;0.85;0.43;;;22.70;32.80;;;;;;5013635;28;20034;-50
2021/05/22 02:57:46;;;;;;;1.67;0.43;;;22.70;32.80;;;;;;5014455;28;20080;-53
2021/05/22 03:00:13;;;;;;;1.40;0.50;;;22.70;32.90;;;;;;5014512;28;20088;-52
2021/05/22 03:02:40;;;;;;;0.77;0.47;;;22.70;32.90;;;;;;5013077;28;20098;-50
2021/05/22 03:05:07;;;;;;;0.70;0.40;;;22.70;32.90;;;;;;5012644;28;20037;-54
2021/05/22 03:07:34;;;;;;;0.80;0.45;;;22.70;32.90;;;;;;5013307;28;20030;-51
2021/05/22 03:10:01;;;;;;;0.88;0.50;;;22.70;32.90;;;;;;5014697;28;20052;-52
2021/05/22 03:12:33;;;;;;;1.98;0.50;;;22.60;32.90;;;;;;5013785;28;20310;-51
2021/05/22 03:14:58;;;;;;;0.75;0.50;;;22.70;33.00;;;;;;5007335;28;20033;-55
2021/05/22 03:17:24;;;;;;;1.05;0.40;;;22.60;33.00;;;;;;5013392;28;20022;-51
2021/05/22 03:19:50;;;;;;;1.65;0.73;;;22.70;33.10;;;;;;5014815;28;20465;-51
2021/05/22 03:22:16;;;;;;;0.88;0.38;;;22.60;33.00;;;;;;5012961;28;20103;-54
2021/05/22 03:24:42;;;;;;;1.23;0.60;;;22.60;33.00;;;;;;5013538;28;20068;-52
2021/05/22 03:27:08;;;;;;;0.50;0.40;;;22.60;33.00;;;;;;5013889;28;20026;-53
2021/05/22 03:29:34;;;;;;;0.77;0.45;;;22.60;33.00;;;;;;5013588;28;20056;-51
2021/05/22 03:32:01;;;;;;;0.90;0.40;;;22.60;33.00;;;;;;5014022;28;20044;-51
2021/05/22 03:34:27;;;;;;;1.05;0.40;;;22.60;33.00;;;;;;5013497;28;20022;-52
2021/05/22 03:36:52;;;;;;;1.30;0.50;;;22.60;33.00;;;;;;5014005;28;20117;-50
2021/05/22 03:39:18;;;;;;;0.75;0.40;;;22.60;33.00;;;;;;5013631;28;20413;-53
2021/05/22 03:41:45;;;;;;;0.45;0.30;;;22.60;33.10;;;;;;5013402;28;20448;-55
2021/05/22 03:44:11;;;;;;;0.77;0.35;;;22.60;33.10;;;;;;5013558;28;20065;-51
2021/05/22 03:46:36;;;;;;;1.00;0.50;;;22.60;33.10;;;;;;5013681;28;20073;-55
2021/05/22 03:49:03;;;;;;;1.20;0.30;;;22.50;33.10;;;;;;5013344;28;20030;-53
2021/05/22 03:51:29;;;;;;;1.05;0.60;;;22.50;33.10;;;;;;5013658;28;20053;-53
2021/05/22 03:53:55;;;;;;;1.55;0.50;;;22.50;33.10;;;;;;5013436;28;20034;-52
2021/05/22 03:56:21;;;;;;;1.00;0.43;;;22.50;33.10;;;;;;5013989;28;20049;-55
2021/05/22 03:58:47;;;;;;;0.90;0.40;;;22.50;33.10;;;;;;5012265;28;20037;-55
2021/05/22 04:01:12;;;;;;;0.55;0.20;;;22.50;33.10;;;;;;5014063;28;20056;-53
2021/05/22 04:03:38;;;;;;;1.05;0.50;;;22.50;33.20;;;;;;5013049;28;20041;-52
2021/05/22 04:06:04;;;;;;;0.63;0.30;;;22.50;33.20;;;;;;5013500;28;20077;-56
2021/05/22 04:08:30;;;;;;;0.47;0.30;;;22.50;33.20;;;;;;5012845;28;20036;-47
2021/05/22 04:10:56;;;;;;;1.00;0.47;;;22.50;33.20;;;;;;5012757;28;20022;-54
2021/05/22 04:13:22;;;;;;;0.63;0.50;;;22.50;33.30;;;;;;5012587;28;20038;-51
2021/05/22 04:15:47;;;;;;;0.98;0.70;;;22.50;33.30;;;;;;5016981;28;20038;-54
2021/05/22 04:18:13;;;;;;;0.55;0.35;;;22.50;33.30;;;;;;5017308;28;20109;-50
2021/05/22 04:20:39;;;;;;;0.80;0.50;;;22.50;33.40;;;;;;5017563;28;20041;-53
2021/05/22 04:23:05;;;;;;;1.35;0.60;;;22.50;34.00;;;;;;5016805;28;20080;-50
2021/05/22 04:25:31;;;;;;;0.77;0.40;;;22.50;33.40;;;;;;5016299;28;20339;-48
2021/05/22 04:27:57;;;;;;;0.98;0.47;;;22.40;33.40;;;;;;5015864;28;20034;-54
2021/05/22 04:30:23;;;;;;;0.90;0.50;;;22.40;33.40;;;;;;5017059;28;20038;-52
2021/05/22 04:32:49;;;;;;;0.68;0.30;;;22.40;33.40;;;;;;5015996;28;20092;-52
2021/05/22 04:35:16;;;;;;;1.25;0.40;;;22.40;33.40;;;;;;5017215;28;20441;-55
2021/05/22 04:37:42;;;;;;;1.42;0.40;;;22.40;33.50;;;;;;5016675;28;20038;-53
2021/05/22 04:40:09;;;;;;;0.85;0.40;;;22.40;33.60;;;;;;5016802;28;20093;-51
2021/05/22 04:42:34;;;;;;;1.80;0.52;;;22.40;33.60;;;;;;5016188;28;20056;-57
2021/05/22 04:45:01;;;;;;;0.98;0.40;;;22.40;33.60;;;;;;5015966;28;20073;-56
2021/05/22 04:47:27;;;;;;;1.10;0.60;;;22.40;33.70;;;;;;5016719;28;20072;-49
2021/05/22 04:49:53;;;;;;;0.98;0.40;;;22.40;33.70;;;;;;5016343;28;20030;-55
2021/05/22 04:52:22;;;;;;;0.60;0.30;;;22.40;33.80;;;;;;5016656;28;20104;-52
2021/05/22 04:54:48;;;;;;;1.27;0.40;;;22.40;33.90;;;;;;5016741;28;20033;-58
2021/05/22 04:57:14;;;;;;;0.75;0.32;;;22.40;33.90;;;;;;5016020;28;20119;-54
2021/05/22 04:59:40;;;;;;;0.65;0.30;;;22.40;34.00;;;;;;5016406;28;20034;-51
2021/05/22 05:02:06;;;;;;;0.60;0.30;;;22.40;34.00;;;;;;5016333;28;20121;-50
2021/05/22 05:04:32;;;;;;;1.75;0.70;;;22.30;34.00;;;;;;5015059;28;20092;-51
2021/05/22 05:06:58;;;;;;;2.25;0.60;;;22.40;34.20;;;;;;5014532;28;20064;-57
2021/05/22 05:09:24;;;;;;;0.50;0.40;;;22.40;34.20;;;;;;5014623;28;20038;-51
2021/05/22 05:11:50;;;;;;;2.05;0.57;;;22.30;34.20;;;;;;5016822;28;20037;-54
2021/05/22 05:14:16;;;;;;;1.35;0.50;;;22.30;34.30;;;;;;5015767;28;20025;-55
2021/05/22 05:16:41;;;;;;;1.40;0.50;;;22.30;34.40;;;;;;5014796;28;20110;-51
2021/05/22 05:19:07;;;;;;;0.73;0.40;;;22.30;34.40;;;;;;5016184;28;20053;-51
2021/05/22 05:21:33;;;;;;;1.13;0.40;;;22.30;34.50;;;;;;5016192;28;20112;-53
2021/05/22 05:23:59;;;;;;;1.10;0.55;;;22.30;34.50;;;;;;5015313;28;20092;-56
2021/05/22 05:26:25;;;;;;;1.70;0.50;;;22.30;34.60;;;;;;5014405;28;20042;-49
2021/05/22 05:28:50;;;;;;;1.67;0.50;;;22.30;34.70;;;;;;5015498;28;20037;-53
2021/05/22 05:31:16;;;;;;;1.13;0.50;;;22.30;34.70;;;;;;5014815;28;20048;-57
2021/05/22 05:33:42;;;;;;;1.20;0.50;;;22.30;34.80;;;;;;5016381;28;20047;-55
2021/05/22 05:36:08;;;;;;;1.35;0.40;;;22.30;35.50;;;;;;5016288;28;20049;-54
2021/05/22 05:38:34;;;;;;;0.60;0.43;;;22.30;34.90;;;;;;5014238;28;20060;-57
2021/05/22 05:40:59;;;;;;;0.63;0.40;;;22.30;35.00;;;;;;5015980;28;20357;-52
2021/05/22 05:43:25;;;;;;;1.35;0.43;;;22.30;35.60;;;;;;5015616;28;20033;-54
2021/05/22 05:45:51;;;;;;;1.73;0.50;;;22.30;35.10;;;;;;5014922;28;20469;-49
2021/05/22 05:48:17;;;;;;;0.90;0.32;;;22.30;35.10;;;;;;5015869;28;20034;-50
2021/05/22 05:50:43;;;;;;;1.42;0.60;;;22.30;35.20;;;;;;5013839;28;20088;-50
2021/05/22 05:53:08;;;;;;;1.13;0.52;;;22.30;35.20;;;;;;5015951;28;20030;-50
2021/05/22 05:55:34;;;;;;;0.60;0.47;;;22.30;35.20;;;;;;5015499;28;20030;-53
2021/05/22 05:58:00;;;;;;;0.93;0.50;;;22.30;35.30;;;;;;5015046;28;20105;-49
2021/05/22 06:00:26;;;;;;;0.90;0.40;;;22.30;35.30;;;;;;5015338;28;20022;-49
2021/05/22 06:02:52;;;;;;;1.50;0.40;;;22.30;35.40;;;;;;5014378;28;20042;-52
2021/05/22 06:05:18;;;;;;;1.33;0.60;;;22.30;35.50;;;;;;5013829;28;20104;-55
2021/05/22 06:07:44;;;;;;;1.00;0.40;;;22.20;35.50;;;;;;5014105;28;20446;-51
2021/05/22 06:10:11;;;;;;;1.25;0.43;;;22.20;35.60;;;;;;5015300;28;20038;-51
2021/05/22 06:12:39;;;;;;;0.93;0.40;;;22.20;35.70;;;;;;5015239;28;20299;-51
2021/05/22 06:15:30;;;;;;;0.57;0.32;;;22.20;35.80;;;;;;5015070;28;20373;-57
2021/05/22 06:17:54;;;;;;;1.05;0.50;;;22.20;35.90;;;;;;5013373;28;20526;-51
2021/05/22 06:20:20;;;;;;;1.27;0.45;;;22.20;35.90;;;;;;5014873;28;20112;-54
2021/05/22 06:22:46;;;;;;;1.48;0.50;;;22.20;36.00;;;;;;5010773;28;20044;-56
2021/05/22 06:25:13;;;;;;;1.55;0.57;;;22.20;36.10;;;;;;5012372;28;20353;-51
2021/05/22 06:27:40;;;;;;;1.33;0.50;;;22.20;36.10;;;;;;5011593;28;20030;-58
2021/05/22 06:30:08;;;;;;;1.65;0.50;;;22.20;36.10;;;;;;5027135;28;20048;-50
2021/05/22 06:32:35;;;;;;;2.10;0.80;;;22.20;36.20;;;;;;4997553;28;20038;-50
2021/05/22 06:35:00;;;;;;;2.67;0.93;;;22.20;36.20;;;;;;4995608;28;20130;-54
2021/05/22 06:37:27;;;;;;;2.38;0.90;;;22.20;36.30;;;;;;5008683;28;20129;-50
2021/05/22 06:39:53;;;;;;;2.85;1.17;;;22.20;36.40;;;;;;5010776;28;20026;-57
2021/05/22 06:42:19;;;;;;;2.28;1.50;;;22.20;36.40;;;;;;5009390;28;20030;-58
2021/05/22 06:45:03;;;;;;;4.43;2.47;;;22.20;36.50;;;;;;5009666;28;20034;-48
2021/05/22 06:47:28;;;;;;;4.45;3.10;;;22.20;36.60;;;;;;5013744;28;20044;-57
2021/05/22 06:49:54;;;;;;;8.52;4.55;;;22.20;36.80;;;;;;5011534;28;20022;-53
2021/05/22 06:52:20;;;;;;;9.80;4.60;;;22.30;37.00;;;;;;5013835;28;20096;-58
2021/05/22 06:54:46;;;;;;;5.68;4.07;;;22.30;36.90;;;;;;5013332;28;20510;-57
2021/05/22 06:57:12;;;;;;;7.20;4.13;;;22.50;37.00;;;;;;5003946;28;20057;-56
2021/05/22 06:59:39;;;;;;;5.72;4.30;;;22.50;36.80;;;;;;5014542;28;20037;-56
2021/05/22 07:02:06;;;;;;;6.60;4.55;;;22.70;36.90;;;;;;5013808;28;20049;-57
2021/05/22 07:04:31;;;;;;;7.55;4.72;;;22.70;36.70;;;;;;5014225;28;20122;-58
2021/05/22 07:06:57;;;;;;;8.35;4.63;;;22.80;36.60;;;;;;5012662;28;20117;-56
2021/05/22 07:09:23;;;;;;;6.22;4.45;;;22.90;36.60;;;;;;5013557;28;20040;-55
2021/05/22 07:11:49;;;;;;;6.57;4.50;;;23.00;36.50;;;;;;5013583;28;20125;-57
2021/05/22 07:14:15;;;;;;;6.18;4.93;;;23.10;36.50;;;;;;5013451;28;20037;-58
2021/05/22 07:16:40;;;;;;;5.65;4.78;;;23.10;36.40;;;;;;5009191;28;20037;-57
2021/05/22 07:19:06;;;;;;;7.13;5.20;;;23.20;36.40;;;;;;5013612;28;20463;-53
2021/05/22 07:21:33;;;;;;;6.68;5.53;;;23.30;36.40;;;;;;5013032;28;20034;-59
2021/05/22 07:23:59;;;;;;;7.25;5.95;;;23.30;36.30;;;;;;5011241;28;20457;-55
2021/05/22 07:26:25;;;;;;;8.23;6.20;;;23.40;36.30;;;;;;5013937;28;20042;-57
2021/05/22 07:28:53;;;;;;;6.32;5.13;;;23.40;36.20;;;;;;5012778;28;20029;-55
2021/05/22 07:31:19;;;;;;;9.07;6.07;;;23.50;36.20;;;;;;5012105;28;20080;-56
2021/05/22 07:33:44;;;;;;;8.32;6.65;;;23.50;36.20;;;;;;5011656;28;20022;-58
2021/05/22 07:36:10;;;;;;;7.75;6.35;;;23.60;36.20;;;;;;5013360;28;20049;-55
2021/05/22 07:38:38;;;;;;;9.45;6.82;;;23.60;36.10;;;;;;5013295;28;20026;-54
2021/05/22 07:41:04;;;;;;;10.20;7.72;;;23.70;36.20;;;;;;5025791;28;20034;-55
2021/05/22 07:43:29;;;;;;;11.13;8.18;;;23.70;36.10;;;;;;5013224;28;20180;-53
2021/05/22 07:45:57;;;;;;;12.88;9.40;;;23.80;36.20;;;;;;5012564;28;20057;-52
2021/05/22 07:48:24;;;;;;;13.25;10.98;;;23.80;36.30;;;;;;5014095;28;20038;-55
2021/05/22 07:50:52;;;;;;;14.25;11.40;;;23.80;36.40;;;;;;5017975;28;20041;-48
2021/05/22 07:53:18;;;;;;;13.45;11.40;;;23.90;36.50;;;;;;5015942;28;20029;-53
2021/05/22 07:55:44;;;;;;;16.60;12.98;;;23.90;36.60;;;;;;5014934;28;20030;-48
2021/05/22 07:58:10;;;;;;;16.77;13.82;;;23.90;36.70;;;;;;5016255;28;20076;-56
2021/05/22 08:00:36;;;;;;;15.93;13.43;;;24.00;36.80;;;;;;5015588;28;20159;-50
2021/05/22 08:03:03;;;;;;;15.73;13.90;;;24.00;36.90;;;;;;5015820;28;20054;-54
2021/05/22 08:05:28;;;;;;;17.10;13.70;;;24.00;37.00;;;;;;5015250;28;20465;-50
2021/05/22 08:07:54;;;;;;;16.70;13.43;;;24.00;37.10;;;;;;5015055;28;20040;-54
2021/05/22 08:10:20;;;;;;;15.43;13.45;;;24.00;37.20;;;;;;5015247;28;20034;-49
2021/05/22 08:12:46;;;;;;;15.05;13.40;;;24.00;37.30;;;;;;5016975;28;20021;-57
2021/05/22 08:15:12;;;;;;;14.98;12.77;;;24.00;37.30;;;;;;5016054;28;20113;-55
2021/05/22 08:17:38;;;;;;;14.77;12.60;;;24.10;37.40;;;;;;5023316;28;20048;-51
2021/05/22 08:20:05;;;;;;;13.68;11.65;;;24.10;37.50;;;;;;5015853;28;20022;-46
2021/05/22 08:22:30;;;;;;;13.95;11.40;;;24.10;37.50;;;;;;5015838;28;20018;-49
2021/05/22 08:24:56;;;;;;;12.35;11.05;;;24.10;37.50;;;;;;5012685;28;20409;-50
2021/05/22 08:27:22;;;;;;;13.80;11.73;;;24.10;37.50;;;;;;5008226;28;20148;-51
2021/05/22 08:29:48;;;;;;;14.38;11.80;;;24.20;37.50;;;;;;5007563;28;20058;-49
2021/05/22 08:32:15;;;;;;;13.43;11.68;;;24.20;37.50;;;;;;5014663;28;20029;-48
2021/05/22 08:34:41;;;;;;;12.90;10.55;;;24.20;37.60;;;;;;5016548;28;20034;-53
2021/05/22 08:37:11;;;;;;;13.70;9.70;;;24.20;37.70;;;;;;5011329;28;20045;-51
2021/05/22 08:39:43;;;;;;;11.68;9.88;;;24.20;37.80;;;;;;5014438;28;20399;-50
2021/05/22 08:42:11;;;;;;;11.25;9.35;;;24.20;37.80;;;;;;5014632;28;20034;-48
2021/05/22 08:44:39;;;;;;;10.48;8.82;;;24.20;37.70;;;;;;5015174;28;20076;-51
2021/05/22 08:47:06;;;;;;;10.85;9.30;;;24.20;37.70;;;;;;5012874;28;20037;-49
2021/05/22 08:49:40;;;;;;;12.23;9.68;;;24.20;37.60;;;;;;5023862;28;20099;-48
2021/05/22 08:52:20;;;;;;;11.45;8.77;;;24.20;37.60;;;;;;5033034;28;20353;-48
2021/05/22 08:54:47;;;;;;;11.52;8.75;;;24.20;37.60;;;;;;5020903;28;20069;-51
2021/05/22 08:57:17;;;;;;;9.68;8.48;;;24.20;37.50;;;;;;5015984;28;20345;-49
2021/05/22 08:59:46;;;;;;;9.45;8.15;;;24.20;37.50;;;;;;5016520;28;20034;-46
2021/05/22 09:02:17;;;;;;;8.80;7.25;;;24.20;37.50;;;;;;5017447;28;20421;-49
2021/05/22 09:05:03;;;;;;;9.60;7.70;;;24.20;37.50;;;;;;5014789;28;20136;-53
2021/05/22 09:07:33;;;;;;;12.15;7.80;;;24.20;37.40;;;;;;5011969;28;20433;-58
2021/05/22 09:10:12;;;;;;;9.65;7.57;;;24.10;37.60;;;;;;5012867;28;20021;-52
2021/05/22 09:12:41;;;;;;;10.88;7.03;;;24.10;37.80;;;;;;5012566;28;20033;-55
2021/05/22 09:15:16;;;;;;;7.57;6.18;;;24.10;37.80;;;;;;5014444;28;20366;-55
2021/05/22 09:17:48;;;;;;;9.70;7.72;;;24.10;37.90;;;;;;5016170;28;20456;-50
2021/05/22 09:20:18;;;;;;;8.98;6.95;;;24.10;38.20;;;;;;5016056;28;20030;-56
2021/05/22 09:22:45;;;;;;;9.68;7.47;;;24.10;38.60;;;;;;5015618;28;20025;-51
2021/05/22 09:25:11;;;;;;;9.88;8.48;;;24.00;38.90;;;;;;5013661;28;20049;-54
2021/05/22 09:27:40;;;;;;;10.65;7.88;;;24.00;39.20;;;;;;5015719;28;20125;-50
2021/05/22 09:30:16;;;;;;;9.80;8.50;;;24.00;39.50;;;;;;5016868;28;20371;-54
2021/05/22 09:32:44;;;;;;;10.48;8.48;;;24.00;39.70;;;;;;5010955;28;20129;-54
2021/05/22 09:35:11;;;;;;;10.43;9.02;;;24.00;39.90;;;;;;5011179;28;20026;-54
2021/05/22 09:37:45;;;;;;;11.25;8.57;;;24.00;39.90;;;;;;5012615;28;20033;-52
2021/05/22 09:40:36;;;;;;;10.95;8.90;;;24.00;40.00;;;;;;5007354;28;20034;-50
2021/05/22 09:43:07;;;;;;;10.20;8.35;;;24.00;40.00;;;;;;5010796;28;20077;-57
2021/05/22 09:45:42;;;;;;;9.07;7.63;;;24.10;40.20;;;;;;5007459;28;20037;-54
2021/05/22 09:48:16;;;;;;;10.18;8.45;;;24.00;40.20;;;;;;5008558;28;20042;-55
2021/05/22 09:50:48;;;;;;;9.80;8.18;;;24.00;40.30;;;;;;5010320;28;20044;-53
2021/05/22 09:53:22;;;;;;;9.43;8.32;;;24.00;40.40;;;;;;5008460;28;20042;-57
2021/05/22 09:56:14;;;;;;;13.18;9.35;;;24.10;40.50;;;;;;5006408;28;20036;-53
2021/05/22 09:58:51;;;;;;;11.95;9.50;;;24.10;40.50;;;;;;5007822;28;20099;-55
2021/05/22 10:01:32;;;;;;;11.93;9.95;;;24.10;40.40;;;;;;5007164;28;20037;-59
2021/05/22 10:04:20;;;;;;;12.63;9.65;;;24.10;40.30;;;;;;5007770;28;20109;-58
2021/05/22 10:06:47;;;;;;;11.02;9.18;;;24.20;40.30;;;;;;5006503;28;20126;-57
2021/05/22 10:09:15;;;;;;;10.48;9.38;;;24.10;40.20;;;;;;5007049;28;20036;-59
2021/05/22 10:12:06;;;;;;;10.95;9.60;;;24.10;40.20;;;;;;5007573;28;20088;-59
2021/05/22 10:14:40;;;;;;;10.85;9.38;;;24.20;40.20;;;;;;5007588;28;20072;-61
2021/05/22 10:17:08;;;;;;;11.07;8.82;;;24.10;40.10;;;;;;5011081;28;20045;-55
2021/05/22 10:19:35;;;;;;;11.35;9.00;;;24.10;40.10;;;;;;5010006;28;20033;-58
2021/05/22 10:22:02;;;;;;;10.57;9.48;;;24.20;40.00;;;;;;5008532;28;20097;-54
2021/05/22 10:24:28;;;;;;;11.20;9.68;;;24.10;40.00;;;;;;5011287;28;20046;-57
2021/05/22 10:26:55;;;;;;;10.90;9.75;;;24.20;39.90;;;;;;5008421;28;20022;-57
2021/05/22 10:29:22;;;;;;;10.77;9.48;;;24.20;39.70;;;;;;5010943;28;20089;-53
2021/05/22 10:31:49;;;;;;;10.18;9.07;;;24.20;39.50;;;;;;5010407;28;20356;-59
2021/05/22 10:34:17;;;;;;;9.32;8.43;;;24.20;39.40;;;;;;5005800;28;20092;-56
2021/05/22 10:36:46;;;;;;;8.93;7.93;;;24.20;39.20;;;;;;5006389;28;20034;-58
2021/05/22 10:39:42;;;;;;;8.65;7.75;;;24.30;39.20;;;;;;5011647;28;20033;-59
2021/05/22 10:42:29;;;;;;;9.32;8.13;;;24.30;39.00;;;;;;5008543;28;20404;-57
2021/05/22 10:44:56;;;;;;;9.32;8.02;;;24.20;38.90;;;;;;5007289;28;20073;-54
2021/05/22 10:47:27;;;;;;;9.60;8.60;;;24.20;38.90;;;;;;5005297;28;20038;-55
2021/05/22 10:50:04;;;;;;;8.98;8.05;;;24.20;38.80;;;;;;5011080;28;20057;-57
2021/05/22 10:52:36;;;;;;;8.27;7.22;;;24.20;38.80;;;;;;5010197;28;20022;-52
2021/05/22 10:55:11;;;;;;;8.57;7.45;;;24.20;38.80;;;;;;5006334;28;20049;-56
2021/05/22 10:57:46;;;;;;;9.00;8.10;;;24.20;38.70;;;;;;5006669;28;20164;-57
2021/05/22 11:00:21;;;;;;;9.60;8.35;;;24.20;38.80;;;;;;5008022;28;20442;-58
2021/05/22 11:02:58;;;;;;;9.05;8.10;;;24.20;38.80;;;;;;5009379;28;20390;-51
2021/05/22 11:08:12;;;;;;;11.27;9.32;;;24.20;38.80;;;;;;5012357;28;20029;-51
2021/05/22 11:10:41;;;;;;;10.70;8.75;;;24.30;39.00;;;;;;5011157;28;20045;-53
2021/05/22 11:13:31;;;;;;;9.48;8.43;;;24.30;39.10;;;;;;5009134;28;20436;-58
2021/05/22 11:15:59;;;;;;;9.48;8.40;;;24.30;39.20;;;;;;5010248;28;20025;-60
2021/05/22 11:18:36;;;;;;;11.00;8.60;;;24.30;39.20;;;;;;5009939;28;20499;-57
2021/05/22 11:21:19;;;;;;;9.10;7.55;;;24.30;39.30;;;;;;5012203;28;20521;-57
2021/05/22 11:24:06;;;;;;;8.30;6.63;;;24.30;39.30;;;;;;5011873;28;20073;-59
2021/05/22 11:26:53;;;;;;;7.53;6.25;;;24.30;39.30;;;;;;5011394;28;20430;-56
2021/05/22 11:29:22;;;;;;;5.97;5.38;;;24.30;39.30;;;;;;5012650;28;20034;-55
2021/05/22 11:31:52;;;;;;;6.30;5.43;;;24.30;39.20;;;;;;5011595;28;20045;-59
2021/05/22 11:34:29;;;;;;;7.05;5.82;;;24.40;39.20;;;;;;4987363;28;20038;-62
2021/05/22 11:37:10;;;;;;;5.20;4.70;;;24.40;39.20;;;;;;4998912;28;20033;-58
2021/05/22 11:39:41;;;;;;;5.03;4.47;;;24.40;39.30;;;;;;5010289;28;20034;-60
2021/05/22 11:42:32;;;;;;;10.02;5.43;;;24.40;39.50;;;;;;5006187;28;20029;-63
2021/05/22 11:45:05;;;;;;;9.63;6.10;;;24.40;39.50;;;;;;5004463;28;20115;-57
2021/05/22 11:47:39;;;;;;;9.93;6.75;;;24.40;39.50;;;;;;5010683;28;20038;-58
2021/05/22 11:50:23;;;;;;;9.52;8.25;;;24.40;39.40;;;;;;5011164;28;20377;-59
2021/05/22 11:52:50;;;;;;;10.60;8.57;;;24.40;39.30;;;;;;5011914;28;20034;-61
2021/05/22 11:55:20;;;;;;;10.70;8.88;;;24.40;39.30;;;;;;5012328;28;20037;-57
2021/05/22 11:58:03;;;;;;;9.27;7.75;;;24.40;39.30;;;;;;5011950;28;20022;-61
2021/05/22 12:00:29;;;;;;;11.57;8.05;;;24.50;39.40;;;;;;5012422;28;20029;-67
2021/05/22 12:02:55;;;;;;;11.85;8.40;;;24.50;39.40;;;;;;5011107;28;20030;-60
2021/05/22 12:05:22;;;;;;;12.82;10.30;;;24.50;39.40;;;;;;5009161;28;20068;-61
2021/05/22 12:07:50;;;;;;;13.48;10.75;;;24.50;39.40;;;;;;5011460;28;20037;-60
2021/05/22 12:10:17;;;;;;;13.98;12.30;;;24.50;40.00;;;;;;5010053;28;20041;-56
2021/05/22 12:12:43;;;;;;;13.90;12.43;;;24.50;39.40;;;;;;5011505;28;20105;-62
2021/05/22 12:15:24;;;;;;;14.90;12.70;;;24.50;39.40;;;;;;5011323;28;20466;-60
2021/05/22 12:17:51;;;;;;;16.63;13.52;;;24.50;39.40;;;;;;5011516;28;20042;-60
2021/05/22 12:20:18;;;;;;;15.00;13.43;;;24.50;39.50;;;;;;5012208;28;20026;-57
2021/05/22 12:22:44;;;;;;;14.70;13.02;;;24.40;39.40;;;;;;5010044;28;20116;-59
2021/05/22 12:25:11;;;;;;;15.23;13.40;;;24.50;39.50;;;;;;5010003;28;20053;-65
2021/05/22 12:27:38;;;;;;;14.02;12.52;;;24.50;39.50;;;;;;5007559;28;20066;-66
2021/05/22 12:30:06;;;;;;;13.23;11.85;;;24.40;39.40;;;;;;5011565;28;20357;-58
2021/05/22 12:32:32;;;;;;;15.48;13.82;;;24.50;39.50;;;;;;5010993;28;20121;-58
2021/05/22 12:35:01;;;;;;;15.13;13.65;;;24.50;39.70;;;;;;5008554;28;20026;-59
2021/05/22 12:37:27;;;;;;;15.52;13.90;;;24.40;39.80;;;;;;5014056;28;20463;-61
2021/05/22 12:40:05;;;;;;;16.00;14.35;;;24.50;39.90;;;;;;5015112;28;20073;-58
2021/05/22 12:42:35;;;;;;;14.25;12.77;;;24.50;39.90;;;;;;5012954;28;20049;-60
2021/05/22 12:45:16;;;;;;;14.98;12.88;;;24.50;39.80;;;;;;5013970;28;20207;-61
2021/05/22 12:47:50;;;;;;;13.85;12.38;;;24.60;39.70;;;;;;5013463;28;20042;-61
2021/05/22 12:50:27;;;;;;;13.90;11.57;;;24.60;39.60;;;;;;5016248;28;20369;-60
2021/05/22 12:52:56;;;;;;;14.75;12.18;;;24.60;39.60;;;;;;5014993;28;20092;-57
2021/05/22 12:55:30;;;;;;;13.85;12.27;;;24.50;39.50;;;;;;5013970;28;20480;-54